sensor_id;sensor_type;location;lat;lon;timestamp;pressure;altitude;pressure_sealevel;temperature;humidity
20115;BME280;10218;42.874;25.320;2024-02-04T00:01:45;97476.94;;;9.84;100.00
20115;BME280;10218;42.874;25.320;2024-02-04T00:04:12;97463.41;;;9.86;100.00
20115;BME280;10218;42.874;25.320;2024-02-04T00:06:39;97464.00;;;9.72;100.00
20115;BME280;10218;42.874;25.320;2024-02-04T00:09:06;97463.59;;;9.84;100.00
20115;BME280;10218;42.874;25.320;2024-02-04T00:11:34;97465.00;;;9.71;100.00
20115;BME280;10218;42.874;25.320;2024-02-04T00:14:01;97458.28;;;9.59;100.00
20115;BME280;10218;42.874;25.320;2024-02-04T00:16:29;97458.28;;;10.01;100.00
20115;BME280;10218;42.874;25.320;2024-02-04T00:18:56;97468.00;;;9.68;100.00
20115;BME280;10218;42.874;25.320;2024-02-04T00:21:23;97459.38;;;9.82;100.00
20115;BME280;10218;42.874;25.320;2024-02-04T00:23:50;97462.28;;;9.97;100.00
20115;BME280;10218;42.874;25.320;2024-02-04T00:26:18;97460.56;;;9.79;100.00
20115;BME280;10218;42.874;25.320;2024-02-04T00:28:45;97464.59;;;9.92;100.00
20115;BME280;10218;42.874;25.320;2024-02-04T00:31:12;97466.69;;;9.72;100.00
20115;BME280;10218;42.874;25.320;2024-02-04T00:33:39;97461.41;;;9.80;100.00
20115;BME280;10218;42.874;25.320;2024-02-04T00:36:06;97446.78;;;9.58;100.00
20115;BME280;10218;42.874;25.320;2024-02-04T00:38:33;97448.09;;;9.88;100.00
20115;BME280;10218;42.874;25.320;2024-02-04T00:41:01;97445.03;;;9.75;100.00
20115;BME280;10218;42.874;25.320;2024-02-04T00:43:27;97450.81;;;9.70;100.00
20115;BME280;10218;42.874;25.320;2024-02-04T00:45:54;97456.72;;;9.48;100.00
20115;BME280;10218;42.874;25.320;2024-02-04T00:48:23;97454.78;;;9.58;100.00
20115;BME280;10218;42.874;25.320;2024-02-04T00:50:50;97456.16;;;9.70;100.00
20115;BME280;10218;42.874;25.320;2024-02-04T00:53:17;97449.06;;;9.79;100.00
20115;BME280;10218;42.874;25.320;2024-02-04T00:55:45;97457.81;;;9.63;100.00
20115;BME280;10218;42.874;25.320;2024-02-04T00:58:12;97450.03;;;9.78;100.00
20115;BME280;10218;42.874;25.320;2024-02-04T01:00:39;97454.22;;;9.80;100.00
20115;BME280;10218;42.874;25.320;2024-02-04T01:03:06;97446.44;;;9.61;100.00
20115;BME280;10218;42.874;25.320;2024-02-04T01:05:33;97449.56;;;9.82;100.00
20115;BME280;10218;42.874;25.320;2024-02-04T01:08:00;97457.34;;;9.76;100.00
20115;BME280;10218;42.874;25.320;2024-02-04T01:10:27;97454.03;;;9.74;100.00
20115;BME280;10218;42.874;25.320;2024-02-04T01:12:54;97458.59;;;9.90;100.00
20115;BME280;10218;42.874;25.320;2024-02-04T01:15:21;97448.84;;;9.72;100.00
20115;BME280;10218;42.874;25.320;2024-02-04T01:17:49;97448.63;;;9.66;100.00
20115;BME280;10218;42.874;25.320;2024-02-04T01:20:16;97445.91;;;9.83;100.00
20115;BME280;10218;42.874;25.320;2024-02-04T01:22:43;97447.75;;;9.49;100.00
20115;BME280;10218;42.874;25.320;2024-02-04T01:25:10;97444.47;;;9.63;100.00
20115;BME280;10218;42.874;25.320;2024-02-04T01:27:37;97431.06;;;9.55;100.00
20115;BME280;10218;42.874;25.320;2024-02-04T01:30:05;97385.09;;;9.53;100.00
20115;BME280;10218;42.874;25.320;2024-02-04T01:32:33;97435.16;;;9.75;100.00
20115;BME280;10218;42.874;25.320;2024-02-04T01:35:00;97435.97;;;9.60;100.00
20115;BME280;10218;42.874;25.320;2024-02-04T01:37:27;97427.84;;;9.77;100.00
20115;BME280;10218;42.874;25.320;2024-02-04T01:39:54;97410.59;;;9.98;100.00
20115;BME280;10218;42.874;25.320;2024-02-04T01:42:22;97424.91;;;9.97;100.00
20115;BME280;10218;42.874;25.320;2024-02-04T01:44:49;97414.97;;;10.15;100.00
20115;BME280;10218;42.874;25.320;2024-02-04T01:47:17;97410.25;;;10.01;100.00
20115;BME280;10218;42.874;25.320;2024-02-04T01:49:44;97416.84;;;9.72;100.00
20115;BME280;10218;42.874;25.320;2024-02-04T01:52:12;97406.28;;;10.05;100.00
20115;BME280;10218;42.874;25.320;2024-02-04T01:54:40;97412.88;;;9.84;100.00
20115;BME280;10218;42.874;25.320;2024-02-04T01:57:09;97411.91;;;10.02;100.00
20115;BME280;10218;42.874;25.320;2024-02-04T01:59:38;97401.91;;;9.96;100.00
20115;BME280;10218;42.874;25.320;2024-02-04T02:02:06;97407.28;;;10.12;100.00
20115;BME280;10218;42.874;25.320;2024-02-04T02:04:33;97403.06;;;9.85;100.00
20115;BME280;10218;42.874;25.320;2024-02-04T02:07:00;97406.94;;;9.99;100.00
20115;BME280;10218;42.874;25.320;2024-02-04T02:09:27;97399.50;;;10.26;100.00
20115;BME280;10218;42.874;25.320;2024-02-04T02:12:12;97398.69;;;10.42;100.00
20115;BME280;10218;42.874;25.320;2024-02-04T02:14:46;97396.03;;;10.50;100.00
20115;BME280;10218;42.874;25.320;2024-02-04T02:17:20;97391.38;;;10.36;100.00
20115;BME280;10218;42.874;25.320;2024-02-04T02:20:01;97392.97;;;10.21;100.00
20115;BME280;10218;42.874;25.320;2024-02-04T02:23:00;97389.69;;;10.35;100.00
20115;BME280;10218;42.874;25.320;2024-02-04T02:25:31;97385.84;;;10.54;100.00
20115;BME280;10218;42.874;25.320;2024-02-04T02:27:59;97379.00;;;10.59;100.00
20115;BME280;10218;42.874;25.320;2024-02-04T02:30:26;97378.84;;;10.53;100.00
20115;BME280;10218;42.874;25.320;2024-02-04T02:32:53;97380.34;;;10.63;100.00
20115;BME280;10218;42.874;25.320;2024-02-04T02:35:20;97376.50;;;10.74;100.00
20115;BME280;10218;42.874;25.320;2024-02-04T02:38:06;97383.19;;;10.70;100.00
20115;BME280;10218;42.874;25.320;2024-02-04T02:41:07;97387.34;;;10.81;100.00
20115;BME280;10218;42.874;25.320;2024-02-04T02:43:35;97382.34;;;10.86;100.00
20115;BME280;10218;42.874;25.320;2024-02-04T02:46:07;97358.97;;;10.63;100.00
20115;BME280;10218;42.874;25.320;2024-02-04T02:48:35;97379.69;;;10.69;100.00
20115;BME280;10218;42.874;25.320;2024-02-04T02:51:02;97382.34;;;10.86;100.00
20115;BME280;10218;42.874;25.320;2024-02-04T02:53:29;97384.34;;;10.92;100.00
20115;BME280;10218;42.874;25.320;2024-02-04T02:55:56;97386.19;;;10.83;100.00
20115;BME280;10218;42.874;25.320;2024-02-04T02:58:23;97389.69;;;10.84;100.00
20115;BME280;10218;42.874;25.320;2024-02-04T03:00:51;97384.19;;;10.69;100.00
20115;BME280;10218;42.874;25.320;2024-02-04T03:03:18;97392.38;;;10.76;100.00
20115;BME280;10218;42.874;25.320;2024-02-04T03:05:45;97383.97;;;11.03;100.00
20115;BME280;10218;42.874;25.320;2024-02-04T03:08:12;97383.00;;;10.88;100.00
20115;BME280;10218;42.874;25.320;2024-02-04T03:10:39;97384.31;;;11.08;100.00
20115;BME280;10218;42.874;25.320;2024-02-04T03:13:06;97386.53;;;10.80;100.00
20115;BME280;10218;42.874;25.320;2024-02-04T03:15:33;97389.34;;;10.79;100.00
20115;BME280;10218;42.874;25.320;2024-02-04T03:18:01;97386.34;;;10.57;100.00
20115;BME280;10218;42.874;25.320;2024-02-04T03:20:28;97390.16;;;10.87;100.00
20115;BME280;10218;42.874;25.320;2024-02-04T03:22:55;97394.03;;;10.68;100.00
20115;BME280;10218;42.874;25.320;2024-02-04T03:25:22;97391.34;;;10.68;100.00
20115;BME280;10218;42.874;25.320;2024-02-04T03:27:53;97386.87;;;10.61;100.00
20115;BME280;10218;42.874;25.320;2024-02-04T03:30:21;97383.69;;;10.73;100.00
20115;BME280;10218;42.874;25.320;2024-02-04T03:32:48;97390.34;;;10.53;100.00
20115;BME280;10218;42.874;25.320;2024-02-04T03:35:15;97398.03;;;10.64;100.00
20115;BME280;10218;42.874;25.320;2024-02-04T03:37:43;97390.03;;;10.81;100.00
20115;BME280;10218;42.874;25.320;2024-02-04T03:40:10;97389.88;;;10.66;100.00
20115;BME280;10218;42.874;25.320;2024-02-04T03:42:38;97370.13;;;10.83;100.00
20115;BME280;10218;42.874;25.320;2024-02-04T03:45:08;97391.69;;;10.90;100.00
20115;BME280;10218;42.874;25.320;2024-02-04T03:47:35;97383.16;;;10.94;100.00
20115;BME280;10218;42.874;25.320;2024-02-04T03:50:02;97373.66;;;10.67;100.00
20115;BME280;10218;42.874;25.320;2024-02-04T03:52:31;97371.97;;;10.83;100.00
20115;BME280;10218;42.874;25.320;2024-02-04T03:54:57;97370.31;;;10.25;100.00
20115;BME280;10218;42.874;25.320;2024-02-04T03:57:27;97366.66;;;10.58;100.00
20115;BME280;10218;42.874;25.320;2024-02-04T03:59:55;97385.34;;;10.83;100.00
20115;BME280;10218;42.874;25.320;2024-02-04T04:02:21;97379.69;;;10.69;100.00
20115;BME280;10218;42.874;25.320;2024-02-04T04:04:49;97374.31;;;10.53;100.00
20115;BME280;10218;42.874;25.320;2024-02-04T04:07:16;97375.00;;;10.63;100.00
20115;BME280;10218;42.874;25.320;2024-02-04T04:09:44;97375.34;;;10.77;100.00
20115;BME280;10218;42.874;25.320;2024-02-04T04:12:12;97363.47;;;10.47;100.00
20115;BME280;10218;42.874;25.320;2024-02-04T04:14:39;97368.31;;;10.59;100.00
20115;BME280;10218;42.874;25.320;2024-02-04T04:17:05;97369.00;;;10.61;100.00
20115;BME280;10218;42.874;25.320;2024-02-04T04:19:33;97356.28;;;10.47;100.00
20115;BME280;10218;42.874;25.320;2024-02-04T04:22:02;97366.31;;;10.53;100.00
20115;BME280;10218;42.874;25.320;2024-02-04T04:24:30;97356.41;;;10.13;100.00
20115;BME280;10218;42.874;25.320;2024-02-04T04:26:57;97365.47;;;10.37;100.00
20115;BME280;10218;42.874;25.320;2024-02-04T04:29:24;97375.31;;;10.28;100.00
20115;BME280;10218;42.874;25.320;2024-02-04T04:31:51;97367.12;;;10.38;100.00
20115;BME280;10218;42.874;25.320;2024-02-04T04:34:19;97368.31;;;10.59;100.00
20115;BME280;10218;42.874;25.320;2024-02-04T04:36:46;97370.81;;;10.45;100.00
20115;BME280;10218;42.874;25.320;2024-02-04T04:39:13;97377.66;;;10.47;100.00
20115;BME280;10218;42.874;25.320;2024-02-04T04:41:44;97394.37;;;10.41;100.00
20115;BME280;10218;42.874;25.320;2024-02-04T04:44:11;97383.16;;;10.62;100.00
20115;BME280;10218;42.874;25.320;2024-02-04T04:46:38;97378.53;;;10.56;100.00
20115;BME280;10218;42.874;25.320;2024-02-04T04:49:06;97382.34;;;10.45;100.00
20115;BME280;10218;42.874;25.320;2024-02-04T04:51:33;97372.81;;;10.43;100.00
20115;BME280;10218;42.874;25.320;2024-02-04T04:54:00;97381.00;;;10.57;100.00
20115;BME280;10218;42.874;25.320;2024-02-04T04:56:28;97372.81;;;10.67;100.00
20115;BME280;10218;42.874;25.320;2024-02-04T04:58:55;97375.16;;;10.54;100.00
20115;BME280;10218;42.874;25.320;2024-02-04T05:01:22;97375.50;;;10.67;100.00
20115;BME280;10218;42.874;25.320;2024-02-04T05:03:49;97371.66;;;10.53;100.00
20115;BME280;10218;42.874;25.320;2024-02-04T05:06:16;97371.00;;;10.35;100.00
20115;BME280;10218;42.874;25.320;2024-02-04T05:08:43;97387.16;;;10.25;100.00
20115;BME280;10218;42.874;25.320;2024-02-04T05:11:10;97397.03;;;10.41;100.00
20115;BME280;10218;42.874;25.320;2024-02-04T05:13:39;97400.19;;;10.53;100.00
20115;BME280;10218;42.874;25.320;2024-02-04T05:16:06;97416.87;;;10.47;100.00
20115;BME280;10218;42.874;25.320;2024-02-04T05:18:34;97421.00;;;10.17;100.00
20115;BME280;10218;42.874;25.320;2024-02-04T05:21:02;97419.88;;;10.19;100.00
20115;BME280;10218;42.874;25.320;2024-02-04T05:23:29;97420.91;;;10.43;100.00
20115;BME280;10218;42.874;25.320;2024-02-04T05:25:57;97426.06;;;10.36;100.00
20115;BME280;10218;42.874;25.320;2024-02-04T05:28:24;97419.75;;;10.45;100.00
20115;BME280;10218;42.874;25.320;2024-02-04T05:30:51;97422.34;;;10.21;100.00
20115;BME280;10218;42.874;25.320;2024-02-04T05:33:18;97425.69;;;10.23;100.00
20115;BME280;10218;42.874;25.320;2024-02-04T05:35:45;97411.28;;;10.08;100.00
20115;BME280;10218;42.874;25.320;2024-02-04T05:38:12;97427.72;;;10.37;100.00
20115;BME280;10218;42.874;25.320;2024-02-04T05:40:39;97418.78;;;10.12;100.00
20115;BME280;10218;42.874;25.320;2024-02-04T05:43:06;97412.56;;;9.96;100.00
20115;BME280;10218;42.874;25.320;2024-02-04T05:45:39;97425.66;;;10.15;100.00
20115;BME280;10218;42.874;25.320;2024-02-04T05:48:08;97396.78;;;10.10;100.00
20115;BME280;10218;42.874;25.320;2024-02-04T05:50:36;97409.53;;;10.24;100.00
20115;BME280;10218;42.874;25.320;2024-02-04T05:53:03;97399.28;;;10.12;100.00
20115;BME280;10218;42.874;25.320;2024-02-04T05:55:30;97393.69;;;10.39;100.00
20115;BME280;10218;42.874;25.320;2024-02-04T05:57:57;97394.63;;;10.14;100.00
20115;BME280;10218;42.874;25.320;2024-02-04T06:00:24;97389.81;;;10.17;100.00
20115;BME280;10218;42.874;25.320;2024-02-04T06:02:53;97380.47;;;10.21;100.00
20115;BME280;10218;42.874;25.320;2024-02-04T06:05:20;97376.66;;;10.32;100.00
20115;BME280;10218;42.874;25.320;2024-02-04T06:07:47;97388.69;;;10.36;100.00
20115;BME280;10218;42.874;25.320;2024-02-04T06:10:14;97386.00;;;10.20;100.00
20115;BME280;10218;42.874;25.320;2024-02-04T06:12:43;97389.50;;;10.37;100.00
20115;BME280;10218;42.874;25.320;2024-02-04T06:15:12;97373.66;;;10.35;100.00
20115;BME280;10218;42.874;25.320;2024-02-04T06:17:41;97372.28;;;10.23;100.00
20115;BME280;10218;42.874;25.320;2024-02-04T06:20:08;97386.69;;;10.46;100.00
20115;BME280;10218;42.874;25.320;2024-02-04T06:22:36;97382.34;;;10.45;100.00
20115;BME280;10218;42.874;25.320;2024-02-04T06:25:04;97395.03;;;10.43;100.00
20115;BME280;10218;42.874;25.320;2024-02-04T06:27:31;97391.59;;;10.09;100.00
20115;BME280;10218;42.874;25.320;2024-02-04T06:29:58;97385.50;;;10.33;100.00
20115;BME280;10218;42.874;25.320;2024-02-04T06:32:25;97394.53;;;10.40;100.00
20115;BME280;10218;42.874;25.320;2024-02-04T06:34:52;97389.19;;;10.40;100.00
20115;BME280;10218;42.874;25.320;2024-02-04T06:37:22;97395.31;;;10.16;100.00
20115;BME280;10218;42.874;25.320;2024-02-04T06:39:49;97401.34;;;10.42;100.00
20115;BME280;10218;42.874;25.320;2024-02-04T06:42:16;97413.69;;;10.27;100.00
20115;BME280;10218;42.874;25.320;2024-02-04T06:44:44;97410.94;;;10.03;100.00
20115;BME280;10218;42.874;25.320;2024-02-04T06:47:12;97405.66;;;10.19;100.00
20115;BME280;10218;42.874;25.320;2024-02-04T06:49:43;97403.03;;;10.43;100.00
20115;BME280;10218;42.874;25.320;2024-02-04T06:52:12;97394.69;;;10.38;100.00
20115;BME280;10218;42.874;25.320;2024-02-04T06:54:39;97413.41;;;10.46;100.00
20115;BME280;10218;42.874;25.320;2024-02-04T06:57:06;97416.72;;;10.40;100.00
20115;BME280;10218;42.874;25.320;2024-02-04T06:59:33;97407.69;;;10.33;100.00
20115;BME280;10218;42.874;25.320;2024-02-04T07:02:00;97410.37;;;10.49;100.00
20115;BME280;10218;42.874;25.320;2024-02-04T07:04:27;97400.38;;;10.43;100.00
20115;BME280;10218;42.874;25.320;2024-02-04T07:06:54;97403.53;;;10.63;100.00
20115;BME280;10218;42.874;25.320;2024-02-04T07:09:21;97432.91;;;10.31;100.00
20115;BME280;10218;42.874;25.320;2024-02-04T07:11:48;97419.75;;;10.53;100.00
20115;BME280;10218;42.874;25.320;2024-02-04T07:14:16;97432.94;;;10.63;100.00
20115;BME280;10218;42.874;25.320;2024-02-04T07:16:43;97417.37;;;10.34;100.00
20115;BME280;10218;42.874;25.320;2024-02-04T07:19:10;97432.72;;;10.24;100.00
20115;BME280;10218;42.874;25.320;2024-02-04T07:21:37;97431.38;;;10.20;100.00
20115;BME280;10218;42.874;25.320;2024-02-04T07:24:04;97431.25;;;10.46;100.00
20115;BME280;10218;42.874;25.320;2024-02-04T07:26:31;97432.09;;;10.54;100.00
20115;BME280;10218;42.874;25.320;2024-02-04T07:28:59;97433.75;;;10.39;100.00
20115;BME280;10218;42.874;25.320;2024-02-04T07:31:25;97436.22;;;10.33;100.00
20115;BME280;10218;42.874;25.320;2024-02-04T07:33:52;97430.75;;;10.58;100.00
20115;BME280;10218;42.874;25.320;2024-02-04T07:36:20;97429.28;;;10.06;100.00
20115;BME280;10218;42.874;25.320;2024-02-04T07:38:47;97426.22;;;10.43;100.00
20115;BME280;10218;42.874;25.320;2024-02-04T07:41:14;97419.75;;;10.78;100.00
20115;BME280;10218;42.874;25.320;2024-02-04T07:43:42;97411.41;;;10.64;100.00
20115;BME280;10218;42.874;25.320;2024-02-04T07:46:10;97408.06;;;10.62;100.00
20115;BME280;10218;42.874;25.320;2024-02-04T07:48:38;97410.41;;;10.82;100.00
20115;BME280;10218;42.874;25.320;2024-02-04T07:51:06;97396.53;;;10.54;100.00
20115;BME280;10218;42.874;25.320;2024-02-04T07:53:33;97408.72;;;10.64;100.00
20115;BME280;10218;42.874;25.320;2024-02-04T07:56:03;97414.41;;;10.94;100.00
20115;BME280;10218;42.874;25.320;2024-02-04T07:58:33;97411.38;;;11.05;100.00
20115;BME280;10218;42.874;25.320;2024-02-04T08:01:00;97419.56;;;10.87;100.00
20115;BME280;10218;42.874;25.320;2024-02-04T08:03:28;97404.06;;;10.58;100.00
20115;BME280;10218;42.874;25.320;2024-02-04T08:05:55;97410.41;;;10.73;100.00
20115;BME280;10218;42.874;25.320;2024-02-04T08:08:22;97420.75;;;10.85;100.00
20115;BME280;10218;42.874;25.320;2024-02-04T08:10:49;97412.56;;;10.54;100.00
20115;BME280;10218;42.874;25.320;2024-02-04T08:13:16;97415.75;;;10.90;100.00
20115;BME280;10218;42.874;25.320;2024-02-04T08:15:43;97414.75;;;10.91;100.00
20115;BME280;10218;42.874;25.320;2024-02-04T08:18:10;97415.72;;;10.49;100.00
20115;BME280;10218;42.874;25.320;2024-02-04T08:20:37;97417.09;;;10.69;100.00
20115;BME280;10218;42.874;25.320;2024-02-04T08:23:04;97423.59;;;10.83;100.00
20115;BME280;10218;42.874;25.320;2024-02-04T08:25:32;97425.09;;;10.61;100.00
20115;BME280;10218;42.874;25.320;2024-02-04T08:27:59;97433.44;;;10.58;100.00
20115;BME280;10218;42.874;25.320;2024-02-04T08:30:26;97422.09;;;10.81;100.00
20115;BME280;10218;42.874;25.320;2024-02-04T08:32:53;97424.59;;;10.74;100.00
20115;BME280;10218;42.874;25.320;2024-02-04T08:35:21;97420.09;;;10.75;100.00
20115;BME280;10218;42.874;25.320;2024-02-04T08:37:48;97422.59;;;10.84;100.00
20115;BME280;10218;42.874;25.320;2024-02-04T08:40:15;97425.75;;;10.55;100.00
20115;BME280;10218;42.874;25.320;2024-02-04T08:42:42;97421.59;;;10.85;100.00
20115;BME280;10218;42.874;25.320;2024-02-04T08:45:10;97424.75;;;10.64;100.00
20115;BME280;10218;42.874;25.320;2024-02-04T08:47:38;97423.75;;;10.57;100.00
20115;BME280;10218;42.874;25.320;2024-02-04T08:50:06;97425.78;;;10.71;100.00
20115;BME280;10218;42.874;25.320;2024-02-04T08:52:33;97424.44;;;10.92;100.00
20115;BME280;10218;42.874;25.320;2024-02-04T08:55:00;97433.63;;;10.89;100.00
20115;BME280;10218;42.874;25.320;2024-02-04T08:57:30;97418.59;;;10.96;100.00
20115;BME280;10218;42.874;25.320;2024-02-04T08:59:57;97426.94;;;11.01;100.00
20115;BME280;10218;42.874;25.320;2024-02-04T09:02:25;97447.16;;;10.71;100.00
20115;BME280;10218;42.874;25.320;2024-02-04T09:04:52;97451.81;;;10.94;100.00
20115;BME280;10218;42.874;25.320;2024-02-04T09:07:20;97444.47;;;10.88;100.00
20115;BME280;10218;42.874;25.320;2024-02-04T09:09:47;97433.28;;;10.92;100.00
20115;BME280;10218;42.874;25.320;2024-02-04T09:12:15;97435.94;;;10.92;100.00
20115;BME280;10218;42.874;25.320;2024-02-04T09:14:43;97447.31;;;10.94;100.00
20115;BME280;10218;42.874;25.320;2024-02-04T09:17:10;97438.59;;;11.25;100.00
20115;BME280;10218;42.874;25.320;2024-02-04T09:19:40;97444.81;;;11.09;100.00
20115;BME280;10218;42.874;25.320;2024-02-04T09:22:08;97417.09;;;11.02;100.00
20115;BME280;10218;42.874;25.320;2024-02-04T09:24:35;97426.91;;;11.18;100.00
20115;BME280;10218;42.874;25.320;2024-02-04T09:27:03;97432.63;;;11.06;100.00
20115;BME280;10218;42.874;25.320;2024-02-04T09:29:30;97428.75;;;11.25;100.00
20115;BME280;10218;42.874;25.320;2024-02-04T09:31:57;97417.37;;;11.15;100.00
20115;BME280;10218;42.874;25.320;2024-02-04T09:34:24;97424.72;;;11.92;100.00
20115;BME280;10218;42.874;25.320;2024-02-04T09:36:51;97422.41;;;12.20;100.00
20115;BME280;10218;42.874;25.320;2024-02-04T09:39:20;97427.00;;;11.56;100.00
20115;BME280;10218;42.874;25.320;2024-02-04T09:41:54;97424.03;;;11.98;100.00
20115;BME280;10218;42.874;25.320;2024-02-04T09:44:23;97415.97;;;12.29;100.00
20115;BME280;10218;42.874;25.320;2024-02-04T09:46:50;97433.56;;;12.32;100.00
20115;BME280;10218;42.874;25.320;2024-02-04T09:49:17;97426.31;;;11.63;100.00
20115;BME280;10218;42.874;25.320;2024-02-04T09:51:45;97421.22;;;12.23;100.00
20115;BME280;10218;42.874;25.320;2024-02-04T09:54:14;97428.56;;;12.29;100.00
20115;BME280;10218;42.874;25.320;2024-02-04T09:56:43;97429.88;;;11.94;100.00
20115;BME280;10218;42.874;25.320;2024-02-04T09:59:10;97422.88;;;11.93;100.00
20115;BME280;10218;42.874;25.320;2024-02-04T10:01:38;97416.87;;;11.91;100.00
20115;BME280;10218;42.874;25.320;2024-02-04T10:04:06;97409.75;;;12.06;100.00
20115;BME280;10218;42.874;25.320;2024-02-04T10:06:33;97412.06;;;12.17;100.00
20115;BME280;10218;42.874;25.320;2024-02-04T10:09:00;97405.28;;;11.98;100.00
20115;BME280;10218;42.874;25.320;2024-02-04T10:11:28;97426.72;;;11.98;100.00
20115;BME280;10218;42.874;25.320;2024-02-04T10:13:55;97428.88;;;12.03;100.00
20115;BME280;10218;42.874;25.320;2024-02-04T10:16:22;97412.59;;;12.05;100.00
20115;BME280;10218;42.874;25.320;2024-02-04T10:18:49;97423.38;;;11.96;100.00
20115;BME280;10218;42.874;25.320;2024-02-04T10:21:21;97424.34;;;12.04;100.00
20115;BME280;10218;42.874;25.320;2024-02-04T10:23:51;97429.97;;;11.78;100.00
20115;BME280;10218;42.874;25.320;2024-02-04T10:26:18;97430.69;;;11.55;100.00
20115;BME280;10218;42.874;25.320;2024-02-04T10:28:47;97427.69;;;11.50;100.00
20115;BME280;10218;42.874;25.320;2024-02-04T10:31:15;97431.69;;;11.54;100.00
20115;BME280;10218;42.874;25.320;2024-02-04T10:33:43;97428.69;;;11.57;100.00
20115;BME280;10218;42.874;25.320;2024-02-04T10:36:10;97420.47;;;11.59;100.00
20115;BME280;10218;42.874;25.320;2024-02-04T10:38:38;97420.94;;;11.71;100.00
20115;BME280;10218;42.874;25.320;2024-02-04T10:41:06;97426.47;;;11.77;100.00
20115;BME280;10218;42.874;25.320;2024-02-04T10:43:34;97409.09;;;12.04;100.00
20115;BME280;10218;42.874;25.320;2024-02-04T10:46:10;97421.06;;;11.93;100.00
20115;BME280;10218;42.874;25.320;2024-02-04T10:48:42;97417.19;;;11.96;100.00
20115;BME280;10218;42.874;25.320;2024-02-04T10:51:15;97408.63;;;12.00;100.00
20115;BME280;10218;42.874;25.320;2024-02-04T10:53:43;97395.09;;;12.25;100.00
20115;BME280;10218;42.874;25.320;2024-02-04T10:56:19;97398.19;;;12.14;100.00
20115;BME280;10218;42.874;25.320;2024-02-04T10:58:47;97390.66;;;12.63;100.00
20115;BME280;10218;42.874;25.320;2024-02-04T11:01:16;97389.19;;;12.75;100.00
20115;BME280;10218;42.874;25.320;2024-02-04T11:03:45;97386.87;;;12.26;100.00
20115;BME280;10218;42.874;25.320;2024-02-04T11:06:12;97389.56;;;12.26;100.00
20115;BME280;10218;42.874;25.320;2024-02-04T11:08:40;97387.53;;;12.51;100.00
20115;BME280;10218;42.874;25.320;2024-02-04T11:11:07;97393.28;;;12.48;100.00
20115;BME280;10218;42.874;25.320;2024-02-04T11:13:35;97381.09;;;12.15;100.00
20115;BME280;10218;42.874;25.320;2024-02-04T11:16:08;97373.88;;;12.15;100.00
20115;BME280;10218;42.874;25.320;2024-02-04T11:19:15;97373.66;;;11.94;100.00
20115;BME280;10218;42.874;25.320;2024-02-04T11:26:51;97370.66;;;12.20;100.00
20115;BME280;10218;42.874;25.320;2024-02-04T11:29:19;97372.00;;;12.47;100.00
20115;BME280;10218;42.874;25.320;2024-02-04T11:31:46;97369.63;;;12.29;100.00
20115;BME280;10218;42.874;25.320;2024-02-04T11:34:14;97360.19;;;12.10;100.00
20115;BME280;10218;42.874;25.320;2024-02-04T11:36:41;97364.53;;;12.11;100.00
20115;BME280;10218;42.874;25.320;2024-02-04T11:39:17;97376.34;;;11.94;100.00
20115;BME280;10218;42.874;25.320;2024-02-04T11:41:48;97378.78;;;12.34;100.00
20115;BME280;10218;42.874;25.320;2024-02-04T11:44:25;97373.03;;;11.92;100.00
20115;BME280;10218;42.874;25.320;2024-02-04T11:46:54;97377.56;;;12.14;100.00
20115;BME280;10218;42.874;25.320;2024-02-04T11:49:24;97358.66;;;11.85;100.00
20115;BME280;10218;42.874;25.320;2024-02-04T11:51:52;97357.66;;;12.39;100.00
20115;BME280;10218;42.874;25.320;2024-02-04T11:54:20;97356.00;;;12.38;100.00
20115;BME280;10218;42.874;25.320;2024-02-04T11:56:49;97361.41;;;12.30;100.00
20115;BME280;10218;42.874;25.320;2024-02-04T11:59:21;97351.34;;;12.32;100.00
20115;BME280;10218;42.874;25.320;2024-02-04T12:01:55;97364.91;;;12.31;100.00
20115;BME280;10218;42.874;25.320;2024-02-04T12:04:23;97352.94;;;12.64;100.00
20115;BME280;10218;42.874;25.320;2024-02-04T12:06:51;97352.94;;;12.41;100.00
20115;BME280;10218;42.874;25.320;2024-02-04T12:09:18;97356.00;;;12.38;100.00
20115;BME280;10218;42.874;25.320;2024-02-04T12:11:46;97334.16;;;12.27;100.00
20115;BME280;10218;42.874;25.320;2024-02-04T12:14:14;97351.75;;;11.98;100.00
20115;BME280;10218;42.874;25.320;2024-02-04T12:16:46;97353.06;;;12.25;100.00
20115;BME280;10218;42.874;25.320;2024-02-04T12:19:14;97356.16;;;12.37;100.00
20115;BME280;10218;42.874;25.320;2024-02-04T12:21:41;97350.69;;;12.53;100.00
20115;BME280;10218;42.874;25.320;2024-02-04T12:24:08;97348.16;;;12.06;100.00
20115;BME280;10218;42.874;25.320;2024-02-04T12:26:36;97345.88;;;12.26;100.00
20115;BME280;10218;42.874;25.320;2024-02-04T12:29:03;97360.19;;;12.10;100.00
20115;BME280;10218;42.874;25.320;2024-02-04T12:31:30;97343.91;;;12.42;100.00
20115;BME280;10218;42.874;25.320;2024-02-04T12:33:59;97344.84;;;12.50;100.00
20115;BME280;10218;42.874;25.320;2024-02-04T12:36:29;97351.03;;;12.50;100.00
20115;BME280;10218;42.874;25.320;2024-02-04T12:38:57;97357.09;;;12.67;100.00
20115;BME280;10218;42.874;25.320;2024-02-04T12:41:25;97354.25;;;12.23;100.00
20115;BME280;10218;42.874;25.320;2024-02-04T12:43:57;97338.00;;;12.24;100.00
20115;BME280;10218;42.874;25.320;2024-02-04T12:46:29;97358.19;;;12.58;100.00
20115;BME280;10218;42.874;25.320;2024-02-04T12:48:58;97354.19;;;12.91;100.00
20115;BME280;10218;42.874;25.320;2024-02-04T12:51:35;97348.53;;;12.86;100.00